sensor_id;sensor_type;location;lat;lon;timestamp;pressure;altitude;pressure_sealevel;temperature;humidity
46408;BME280;32110;45.724;21.276;2022-12-29T00:01:36;101397.19;;;-1.20;nan
46408;BME280;32110;45.724;21.276;2022-12-29T00:04:02;101408.09;;;-1.16;nan
46408;BME280;32110;45.724;21.276;2022-12-29T00:06:28;101395.91;;;-1.25;nan
46408;BME280;32110;45.724;21.276;2022-12-29T00:08:54;101398.88;;;-1.30;nan
46408;BME280;32110;45.724;21.276;2022-12-29T00:11:22;101395.72;;;-1.34;nan
46408;BME280;32110;45.724;21.276;2022-12-29T00:13:48;101386.56;;;-1.38;nan
46408;BME280;32110;45.724;21.276;2022-12-29T00:16:34;101404.03;;;-1.30;nan
46408;BME280;32110;45.724;21.276;2022-12-29T00:19:01;101408.84;;;-1.25;nan
46408;BME280;32110;45.724;21.276;2022-12-29T00:21:27;101403.09;;;-1.29;nan
46408;BME280;32110;45.724;21.276;2022-12-29T00:24:19;101405.81;;;-1.31;nan
46408;BME280;32110;45.724;21.276;2022-12-29T00:29:48;101393.97;;;-1.44;nan
46408;BME280;32110;45.724;21.276;2022-12-29T00:32:32;101398.88;;;-1.41;nan
46408;BME280;32110;45.724;21.276;2022-12-29T00:35:28;101402.25;;;-1.30;nan
46408;BME280;32110;45.724;21.276;2022-12-29T00:37:55;101392.44;;;-1.36;nan
46408;BME280;32110;45.724;21.276;2022-12-29T00:40:41;101327.59;;;-1.65;nan
46408;BME280;32110;45.724;21.276;2022-12-29T00:43:25;101381.03;;;-1.33;nan
46408;BME280;32110;45.724;21.276;2022-12-29T00:46:08;101400.72;;;-1.21;nan
46408;BME280;32110;45.724;21.276;2022-12-29T00:48:34;101382.88;;;-1.24;nan
46408;BME280;32110;45.724;21.276;2022-12-29T00:51:18;101389.94;;;-1.26;nan
46408;BME280;32110;45.724;21.276;2022-12-29T00:53:43;101383.81;;;-1.25;nan
46408;BME280;32110;45.724;21.276;2022-12-29T00:56:08;101373.03;;;-1.30;nan
46408;BME280;32110;45.724;21.276;2022-12-29T00:58:34;101382.88;;;-1.24;nan
46408;BME280;32110;45.724;21.276;2022-12-29T01:01:07;101380.03;;;-1.21;nan
46408;BME280;32110;45.724;21.276;2022-12-29T01:03:34;101399.38;;;-1.15;nan
46408;BME280;32110;45.724;21.276;2022-12-29T01:06:04;101382.19;;;-1.26;nan
46408;BME280;32110;45.724;21.276;2022-12-29T01:08:30;101383.69;;;-1.23;nan
46408;BME280;32110;45.724;21.276;2022-12-29T01:11:00;101405.47;;;-1.05;nan
46408;BME280;32110;45.724;21.276;2022-12-29T01:13:26;101378.41;;;-1.22;nan
46408;BME280;32110;45.724;21.276;2022-12-29T01:15:52;101413.69;;;-1.00;nan
46408;BME280;32110;45.724;21.276;2022-12-29T01:18:18;101349.81;;;-1.41;nan
46408;BME280;32110;45.724;21.276;2022-12-29T01:20:43;101400.31;;;-1.05;nan
46408;BME280;32110;45.724;21.276;2022-12-29T01:23:09;101403.00;;;-1.07;nan
46408;BME280;32110;45.724;21.276;2022-12-29T01:25:34;101398.66;;;-1.06;nan
46408;BME280;32110;45.724;21.276;2022-12-29T01:27:59;101376.75;;;-1.23;nan
46408;BME280;32110;45.724;21.276;2022-12-29T01:30:25;101388.94;;;-1.14;nan
46408;BME280;32110;45.724;21.276;2022-12-29T01:32:50;101398.31;;;-1.13;nan
46408;BME280;32110;45.724;21.276;2022-12-29T01:35:15;101375.13;;;-1.24;nan
46408;BME280;32110;45.724;21.276;2022-12-29T01:37:41;101356.81;;;-1.32;nan
46408;BME280;32110;45.724;21.276;2022-12-29T01:40:06;101382.50;;;-1.19;nan
46408;BME280;32110;45.724;21.276;2022-12-29T01:42:32;101387.53;;;-1.18;nan
46408;BME280;32110;45.724;21.276;2022-12-29T01:45:01;101383.31;;;-1.19;nan
46408;BME280;32110;45.724;21.276;2022-12-29T01:47:34;101384.97;;;-1.18;nan
46408;BME280;32110;45.724;21.276;2022-12-29T01:52:33;101390.44;;;-1.11;nan
46408;BME280;32110;45.724;21.276;2022-12-29T01:55:02;101382.81;;;-1.13;nan
46408;BME280;32110;45.724;21.276;2022-12-29T01:57:31;101366.75;;;-1.16;nan
46408;BME280;32110;45.724;21.276;2022-12-29T02:00:08;101387.75;;;-1.10;nan
46408;BME280;32110;45.724;21.276;2022-12-29T02:02:34;101372.09;;;-1.08;nan
46408;BME280;32110;45.724;21.276;2022-12-29T02:05:07;101351.50;;;-1.19;nan
46408;BME280;32110;45.724;21.276;2022-12-29T02:07:35;101365.31;;;-1.09;nan
46408;BME280;32110;45.724;21.276;2022-12-29T02:10:01;101370.47;;;-1.09;nan
46408;BME280;32110;45.724;21.276;2022-12-29T02:12:27;101367.63;;;-1.06;nan
46408;BME280;32110;45.724;21.276;2022-12-29T02:14:58;101363.28;;;-1.05;nan
46408;BME280;32110;45.724;21.276;2022-12-29T02:17:32;101373.50;;;-1.04;nan
46408;BME280;32110;45.724;21.276;2022-12-29T02:36:07;101351.06;;;-1.03;nan
46408;BME280;32110;45.724;21.276;2022-12-29T02:43:57;101343.50;;;-1.16;nan
46408;BME280;32110;45.724;21.276;2022-12-29T02:46:51;101347.16;;;-1.19;nan
46408;BME280;32110;45.724;21.276;2022-12-29T02:52:00;101360.31;;;-1.22;nan
46408;BME280;32110;45.724;21.276;2022-12-29T02:54:27;101328.09;;;-1.39;nan
46408;BME280;32110;45.724;21.276;2022-12-29T03:00:16;101356.22;;;-1.24;nan
46408;BME280;32110;45.724;21.276;2022-12-29T03:08:47;101353.88;;;-1.27;nan
46408;BME280;32110;45.724;21.276;2022-12-29T03:11:09;101353.31;;;-1.31;nan
46408;BME280;32110;45.724;21.276;2022-12-29T03:14:02;101363.50;;;-1.30;nan
46408;BME280;32110;45.724;21.276;2022-12-29T03:16:59;101343.59;;;-1.39;nan
46408;BME280;32110;45.724;21.276;2022-12-29T03:19:35;101345.34;;;-1.39;nan
46408;BME280;32110;45.724;21.276;2022-12-29T03:22:05;101330.38;;;-1.57;nan
46408;BME280;32110;45.724;21.276;2022-12-29T03:24:54;101333.84;;;-1.46;nan
46408;BME280;32110;45.724;21.276;2022-12-29T03:27:34;101347.81;;;-1.38;nan
46408;BME280;32110;45.724;21.276;2022-12-29T03:30:04;101353.53;;;-1.34;nan
46408;BME280;32110;45.724;21.276;2022-12-29T03:32:37;101342.47;;;-1.46;nan
46408;BME280;32110;45.724;21.276;2022-12-29T03:35:05;101352.16;;;-1.38;nan
46408;BME280;32110;45.724;21.276;2022-12-29T03:37:37;101352.16;;;-1.38;nan
46408;BME280;32110;45.724;21.276;2022-12-29T03:40:05;101342.56;;;-1.47;nan
46408;BME280;32110;45.724;21.276;2022-12-29T03:42:32;101353.94;;;-1.39;nan
46408;BME280;32110;45.724;21.276;2022-12-29T03:44:59;101343.00;;;-1.42;nan
46408;BME280;32110;45.724;21.276;2022-12-29T03:47:25;101350.72;;;-1.31;nan
46408;BME280;32110;45.724;21.276;2022-12-29T03:49:51;101343.91;;;-1.32;nan
46408;BME280;32110;45.724;21.276;2022-12-29T03:52:17;101343.91;;;-1.32;nan
46408;BME280;32110;45.724;21.276;2022-12-29T03:54:43;101341.03;;;-1.39;nan
46408;BME280;32110;45.724;21.276;2022-12-29T03:57:09;101337.59;;;-1.39;nan
46408;BME280;32110;45.724;21.276;2022-12-29T03:59:35;101323.53;;;-1.46;nan
46408;BME280;32110;45.724;21.276;2022-12-29T04:02:00;101336.22;;;-1.43;nan
46408;BME280;32110;45.724;21.276;2022-12-29T04:04:26;101343.47;;;-1.37;nan
46408;BME280;32110;45.724;21.276;2022-12-29T04:06:51;101348.16;;;-1.31;nan
46408;BME280;32110;45.724;21.276;2022-12-29T04:09:16;101358.47;;;-1.31;nan
46408;BME280;32110;45.724;21.276;2022-12-29T04:11:42;101355.19;;;-1.33;nan
46408;BME280;32110;45.724;21.276;2022-12-29T04:14:07;101362.34;;;-1.37;nan
46408;BME280;32110;45.724;21.276;2022-12-29T04:16:32;101339.88;;;-1.46;nan
46408;BME280;32110;45.724;21.276;2022-12-29T04:19:01;101358.16;;;-1.38;nan
46408;BME280;32110;45.724;21.276;2022-12-29T04:21:26;101332.72;;;-1.54;nan
46408;BME280;32110;45.724;21.276;2022-12-29T04:23:52;101358.16;;;-1.38;nan
46408;BME280;32110;45.724;21.276;2022-12-29T04:26:17;101354.75;;;-1.38;nan
46408;BME280;32110;45.724;21.276;2022-12-29T04:28:42;101344.91;;;-1.44;nan
46408;BME280;32110;45.724;21.276;2022-12-29T04:31:08;101341.16;;;-1.52;nan
46408;BME280;32110;45.724;21.276;2022-12-29T04:33:33;101358.97;;;-1.37;nan
46408;BME280;32110;45.724;21.276;2022-12-29T04:35:59;101366.00;;;-1.39;nan
46408;BME280;32110;45.724;21.276;2022-12-29T04:38:24;101364.16;;;-1.48;nan
46408;BME280;32110;45.724;21.276;2022-12-29T04:40:50;101365.38;;;-1.53;nan
46408;BME280;32110;45.724;21.276;2022-12-29T04:43:16;101367.00;;;-1.52;nan
46408;BME280;32110;45.724;21.276;2022-12-29T04:45:45;101362.44;;;-1.59;nan
46408;BME280;32110;45.724;21.276;2022-12-29T04:48:11;101360.31;;;-1.54;nan
46408;BME280;32110;45.724;21.276;2022-12-29T04:50:37;101369.72;;;-1.53;nan
46408;BME280;32110;45.724;21.276;2022-12-29T04:53:02;101362.53;;;-1.50;nan
46408;BME280;32110;45.724;21.276;2022-12-29T04:55:28;101371.09;;;-1.49;nan
46408;BME280;32110;45.724;21.276;2022-12-29T04:57:53;101347.75;;;-1.59;nan
46408;BME280;32110;45.724;21.276;2022-12-29T05:00:18;101373.81;;;-1.51;nan
46408;BME280;32110;45.724;21.276;2022-12-29T05:02:44;101353.06;;;-1.60;nan
46408;BME280;32110;45.724;21.276;2022-12-29T05:05:10;101367.94;;;-1.53;nan
46408;BME280;32110;45.724;21.276;2022-12-29T05:07:35;101355.06;;;-1.64;nan
46408;BME280;32110;45.724;21.276;2022-12-29T05:10:01;101354.50;;;-1.67;nan
46408;BME280;32110;45.724;21.276;2022-12-29T05:12:30;101372.31;;;-1.53;nan
46408;BME280;32110;45.724;21.276;2022-12-29T05:14:56;101362.34;;;-1.58;nan
46408;BME280;32110;45.724;21.276;2022-12-29T05:17:21;101349.69;;;-1.72;nan
46408;BME280;32110;45.724;21.276;2022-12-29T05:19:46;101367.72;;;-1.61;nan
46408;BME280;32110;45.724;21.276;2022-12-29T05:22:12;101307.41;;;-2.03;nan
46408;BME280;32110;45.724;21.276;2022-12-29T05:24:37;101366.56;;;-1.68;nan
46408;BME280;32110;45.724;21.276;2022-12-29T05:27:02;101375.63;;;-1.74;nan
46408;BME280;32110;45.724;21.276;2022-12-29T05:29:28;101355.56;;;-1.81;nan
46408;BME280;32110;45.724;21.276;2022-12-29T05:31:53;101380.19;;;-1.66;nan
46408;BME280;32110;45.724;21.276;2022-12-29T05:34:18;101379.00;;;-1.62;nan
46408;BME280;32110;45.724;21.276;2022-12-29T05:36:44;101360.03;;;-1.72;nan
46408;BME280;32110;45.724;21.276;2022-12-29T05:39:09;101372.88;;;-1.61;nan
46408;BME280;32110;45.724;21.276;2022-12-29T05:41:35;101384.06;;;-1.60;nan
46408;BME280;32110;45.724;21.276;2022-12-29T05:44:01;101383.47;;;-1.64;nan
46408;BME280;32110;45.724;21.276;2022-12-29T05:46:26;101378.56;;;-1.67;nan
46408;BME280;32110;45.724;21.276;2022-12-29T05:48:52;101352.19;;;-1.82;nan
46408;BME280;32110;45.724;21.276;2022-12-29T05:51:17;101371.03;;;-1.70;nan
46408;BME280;32110;45.724;21.276;2022-12-29T05:53:42;101368.69;;;-1.73;nan
46408;BME280;32110;45.724;21.276;2022-12-29T05:56:08;101359.31;;;-1.74;nan
46408;BME280;32110;45.724;21.276;2022-12-29T05:58:33;101367.75;;;-1.72;nan
46408;BME280;32110;45.724;21.276;2022-12-29T06:00:59;101378.66;;;-1.68;nan
46408;BME280;32110;45.724;21.276;2022-12-29T06:03:24;101372.22;;;-1.74;nan
46408;BME280;32110;45.724;21.276;2022-12-29T06:05:49;101374.56;;;-1.71;nan
46408;BME280;32110;45.724;21.276;2022-12-29T06:08:15;101375.63;;;-1.74;nan
46408;BME280;32110;45.724;21.276;2022-12-29T06:10:40;101374.22;;;-1.78;nan
46408;BME280;32110;45.724;21.276;2022-12-29T06:13:06;101363.56;;;-1.84;nan
46408;BME280;32110;45.724;21.276;2022-12-29T06:15:32;101367.66;;;-1.82;nan
46408;BME280;32110;45.724;21.276;2022-12-29T06:17:57;101375.28;;;-1.80;nan
46408;BME280;32110;45.724;21.276;2022-12-29T06:20:23;101381.03;;;-1.77;nan
46408;BME280;32110;45.724;21.276;2022-12-29T06:22:48;101375.16;;;-1.79;nan
46408;BME280;32110;45.724;21.276;2022-12-29T06:25:14;101364.75;;;-1.88;nan
46408;BME280;32110;45.724;21.276;2022-12-29T06:27:40;101383.03;;;-1.80;nan
46408;BME280;32110;45.724;21.276;2022-12-29T06:30:06;101372.47;;;-1.88;nan
46408;BME280;32110;45.724;21.276;2022-12-29T06:32:31;101369.91;;;-1.88;nan
46408;BME280;32110;45.724;21.276;2022-12-29T06:34:57;101385.03;;;-1.84;nan
46408;BME280;32110;45.724;21.276;2022-12-29T06:37:22;101369.19;;;-1.90;nan
46408;BME280;32110;45.724;21.276;2022-12-29T06:39:47;101377.28;;;-1.84;nan
46408;BME280;32110;45.724;21.276;2022-12-29T06:42:13;101373.66;;;-1.81;nan
46408;BME280;32110;45.724;21.276;2022-12-29T06:44:38;101375.28;;;-1.80;nan
46408;BME280;32110;45.724;21.276;2022-12-29T06:47:03;101384.31;;;-1.75;nan
46408;BME280;32110;45.724;21.276;2022-12-29T06:49:29;101381.59;;;-1.73;nan
46408;BME280;32110;45.724;21.276;2022-12-29T06:51:54;101376.19;;;-1.70;nan
46408;BME280;32110;45.724;21.276;2022-12-29T06:54:19;101383.13;;;-1.71;nan
46408;BME280;32110;45.724;21.276;2022-12-29T06:56:45;101376.56;;;-1.75;nan
46408;BME280;32110;45.724;21.276;2022-12-29T06:59:10;101390.66;;;-1.67;nan
46408;BME280;32110;45.724;21.276;2022-12-29T07:01:36;101401.06;;;-1.58;nan
46408;BME280;32110;45.724;21.276;2022-12-29T07:04:02;101374.31;;;-1.68;nan
46408;BME280;32110;45.724;21.276;2022-12-29T07:06:28;101384.38;;;-1.54;nan
46408;BME280;32110;45.724;21.276;2022-12-29T07:08:53;101370.66;;;-1.65;nan
46408;BME280;32110;45.724;21.276;2022-12-29T07:11:20;101396.56;;;-1.44;nan
46408;BME280;32110;45.724;21.276;2022-12-29T07:13:46;101403.03;;;-1.39;nan
46408;BME280;32110;45.724;21.276;2022-12-29T07:16:12;101406.88;;;-1.33;nan
46408;BME280;32110;45.724;21.276;2022-12-29T07:18:37;101407.06;;;-0.93;nan
46408;BME280;32110;45.724;21.276;2022-12-29T07:21:03;101404.59;;;-0.94;nan
46408;BME280;32110;45.724;21.276;2022-12-29T07:23:28;101406.03;;;-1.01;nan
46408;BME280;32110;45.724;21.276;2022-12-29T07:26:04;101413.53;;;-0.98;nan
46408;BME280;32110;45.724;21.276;2022-12-29T07:28:30;101407.44;;;-0.97;nan
46408;BME280;32110;45.724;21.276;2022-12-29T07:30:57;101414.56;;;-0.90;nan
46408;BME280;32110;45.724;21.276;2022-12-29T07:33:23;101413.22;;;-0.84;nan
46408;BME280;32110;45.724;21.276;2022-12-29T07:35:48;101412.63;;;-0.76;nan
46408;BME280;32110;45.724;21.276;2022-12-29T07:38:14;101409.19;;;-0.77;nan
46408;BME280;32110;45.724;21.276;2022-12-29T07:40:39;101407.91;;;-0.71;nan
46408;BME280;32110;45.724;21.276;2022-12-29T07:43:05;101403.28;;;-0.68;nan
46408;BME280;32110;45.724;21.276;2022-12-29T07:45:34;101416.22;;;-0.47;nan
46408;BME280;32110;45.724;21.276;2022-12-29T07:47:59;101401.50;;;-0.46;nan
46408;BME280;32110;45.724;21.276;2022-12-29T07:50:24;101394.31;;;-0.43;nan
46408;BME280;32110;45.724;21.276;2022-12-29T07:52:50;101394.47;;;-0.34;nan
46408;BME280;32110;45.724;21.276;2022-12-29T07:55:16;101408.59;;;-0.17;nan
46408;BME280;32110;45.724;21.276;2022-12-29T07:57:42;101397.28;;;-0.16;nan
46408;BME280;32110;45.724;21.276;2022-12-29T08:00:08;101399.38;;;-0.01;nan
46408;BME280;32110;45.724;21.276;2022-12-29T08:02:34;101384.69;;;0.00;nan
46408;BME280;32110;45.724;21.276;2022-12-29T08:09:54;101369.06;;;0.40;nan
46408;BME280;32110;45.724;21.276;2022-12-29T08:12:19;101342.34;;;0.40;nan
46408;BME280;32110;45.724;21.276;2022-12-29T08:14:45;101347.53;;;0.59;nan
46408;BME280;32110;45.724;21.276;2022-12-29T08:17:10;101369.25;;;0.78;nan
46408;BME280;32110;45.724;21.276;2022-12-29T08:19:36;101360.25;;;0.82;nan
46408;BME280;32110;45.724;21.276;2022-12-29T08:22:02;101379.06;;;1.03;nan
46408;BME280;32110;45.724;21.276;2022-12-29T08:24:28;101338.41;;;0.94;nan
46408;BME280;32110;45.724;21.276;2022-12-29T18:28:05;101053.91;;;7.44;nan
46408;BME280;32110;45.724;21.276;2022-12-29T18:30:30;101065.03;;;7.46;nan
46408;BME280;32110;45.724;21.276;2022-12-29T18:32:56;101075.50;;;7.46;nan
46408;BME280;32110;45.724;21.276;2022-12-29T18:35:27;101078.97;;;7.47;nan
46408;BME280;32110;45.724;21.276;2022-12-29T18:37:54;101081.13;;;7.43;nan
46408;BME280;32110;45.724;21.276;2022-12-29T18:42:45;101128.53;;;7.49;nan
46408;BME280;32110;45.724;21.276;2022-12-29T18:45:19;101122.66;;;7.46;nan
46408;BME280;32110;45.724;21.276;2022-12-29T18:47:45;101124.09;;;7.49;nan
46408;BME280;32110;45.724;21.276;2022-12-29T18:50:11;101120.25;;;7.45;nan
46408;BME280;32110;45.724;21.276;2022-12-29T18:52:37;101103.44;;;7.39;nan
46408;BME280;32110;45.724;21.276;2022-12-29T18:55:02;101120.28;;;7.52;nan
46408;BME280;32110;45.724;21.276;2022-12-29T18:57:28;101117.44;;;7.46;nan
46408;BME280;32110;45.724;21.276;2022-12-29T18:59:57;101107.09;;;7.38;nan
46408;BME280;32110;45.724;21.276;2022-12-29T19:02:22;101125.53;;;7.52;nan
46408;BME280;32110;45.724;21.276;2022-12-29T19:04:49;101113.38;;;7.44;nan
46408;BME280;32110;45.724;21.276;2022-12-29T19:07:15;101105.72;;;7.42;nan
46408;BME280;32110;45.724;21.276;2022-12-29T19:09:40;101099.66;;;7.42;nan
46408;BME280;32110;45.724;21.276;2022-12-29T19:12:07;101099.66;;;7.42;nan
46408;BME280;32110;45.724;21.276;2022-12-29T19:14:33;101069.63;;;7.23;nan
46408;BME280;32110;45.724;21.276;2022-12-29T19:16:58;101103.69;;;7.44;nan
46408;BME280;32110;45.724;21.276;2022-12-29T19:19:24;101087.94;;;7.38;nan
46408;BME280;32110;45.724;21.276;2022-12-29T19:21:49;101094.22;;;7.43;nan
46408;BME280;32110;45.724;21.276;2022-12-29T19:24:20;101091.59;;;7.43;nan
46408;BME280;32110;45.724;21.276;2022-12-29T19:26:45;101116.31;;;7.56;nan
46408;BME280;32110;45.724;21.276;2022-12-29T19:29:13;101090.59;;;7.44;nan
46408;BME280;32110;45.724;21.276;2022-12-29T19:31:39;101117.41;;;7.61;nan
46408;BME280;32110;45.724;21.276;2022-12-29T19:34:05;101105.84;;;7.56;nan
46408;BME280;32110;45.724;21.276;2022-12-29T19:36:30;101112.75;;;7.63;nan
46408;BME280;32110;45.724;21.276;2022-12-29T19:38:56;101106.06;;;7.61;nan
46408;BME280;32110;45.724;21.276;2022-12-29T19:41:22;101091.69;;;7.50;nan
46408;BME280;32110;45.724;21.276;2022-12-29T19:43:48;101100.22;;;7.59;nan
46408;BME280;32110;45.724;21.276;2022-12-29T19:46:16;101110.97;;;7.64;nan
46408;BME280;32110;45.724;21.276;2022-12-29T19:48:42;101112.34;;;7.60;nan
46408;BME280;32110;45.724;21.276;2022-12-29T19:51:11;101118.63;;;7.65;nan
46408;BME280;32110;45.724;21.276;2022-12-29T19:53:37;101108.06;;;7.59;nan
46408;BME280;32110;45.724;21.276;2022-12-29T19:56:06;101115.81;;;7.67;nan
46408;BME280;32110;45.724;21.276;2022-12-29T19:58:33;101111.94;;;7.63;nan
46408;BME280;32110;45.724;21.276;2022-12-29T20:01:09;101093.75;;;7.55;nan
46408;BME280;32110;45.724;21.276;2022-12-29T20:03:35;101105.16;;;7.69;nan
46408;BME280;32110;45.724;21.276;2022-12-29T20:06:01;101098.09;;;7.69;nan
46408;BME280;32110;45.724;21.276;2022-12-29T20:08:27;101079.88;;;7.61;nan
46408;BME280;32110;45.724;21.276;2022-12-29T20:10:59;101089.59;;;7.67;nan
46408;BME280;32110;45.724;21.276;2022-12-29T20:13:25;101074.00;;;7.59;nan
46408;BME280;32110;45.724;21.276;2022-12-29T20:15:56;101101.94;;;7.73;nan
46408;BME280;32110;45.724;21.276;2022-12-29T20:18:21;101088.59;;;7.68;nan
46408;BME280;32110;45.724;21.276;2022-12-29T20:20:47;101096.34;;;7.76;nan
46408;BME280;32110;45.724;21.276;2022-12-29T20:23:12;101095.53;;;7.76;nan
46408;BME280;32110;45.724;21.276;2022-12-29T20:25:37;101106.59;;;7.71;nan
46408;BME280;32110;45.724;21.276;2022-12-29T20:28:03;101102.22;;;7.78;nan
46408;BME280;32110;45.724;21.276;2022-12-29T20:30:28;101098.34;;;7.74;nan
46408;BME280;32110;45.724;21.276;2022-12-29T20:32:54;101092.09;;;7.75;nan
46408;BME280;32110;45.724;21.276;2022-12-29T20:35:19;101103.41;;;7.76;nan
46408;BME280;32110;45.724;21.276;2022-12-29T20:37:44;101117.88;;;7.72;nan
46408;BME280;32110;45.724;21.276;2022-12-29T20:40:10;101052.16;;;7.30;nan
46408;BME280;32110;45.724;21.276;2022-12-29T20:42:35;101123.44;;;7.62;nan
46408;BME280;32110;45.724;21.276;2022-12-29T20:45:00;101117.56;;;7.60;nan
46408;BME280;32110;45.724;21.276;2022-12-29T20:47:26;101124.19;;;7.56;nan
46408;BME280;32110;45.724;21.276;2022-12-29T20:49:52;101147.66;;;7.64;nan
46408;BME280;32110;45.724;21.276;2022-12-29T20:52:17;101158.63;;;7.74;nan
46408;BME280;32110;45.724;21.276;2022-12-29T20:54:43;101124.94;;;7.71;nan
46408;BME280;32110;45.724;21.276;2022-12-29T20:57:09;101101.91;;;7.66;nan
46408;BME280;32110;45.724;21.276;2022-12-29T20:59:35;101114.94;;;7.81;nan
46408;BME280;32110;45.724;21.276;2022-12-29T21:02:01;101106.50;;;7.86;nan
46408;BME280;32110;45.724;21.276;2022-12-29T21:04:26;101119.69;;;7.93;nan
46408;BME280;32110;45.724;21.276;2022-12-29T21:06:54;101113.84;;;7.97;nan
46408;BME280;32110;45.724;21.276;2022-12-29T21:09:20;101108.25;;;8.00;nan
46408;BME280;32110;45.724;21.276;2022-12-29T21:11:46;101101.59;;;8.04;nan
46408;BME280;32110;45.724;21.276;2022-12-29T21:14:12;101087.25;;;8.00;nan
46408;BME280;32110;45.724;21.276;2022-12-29T21:16:37;101100.03;;;8.10;nan
46408;BME280;32110;45.724;21.276;2022-12-29T21:19:03;101107.50;;;8.13;nan
46408;BME280;32110;45.724;21.276;2022-12-29T21:21:28;101110.75;;;8.15;nan
46408;BME280;32110;45.724;21.276;2022-12-29T21:23:54;101111.19;;;8.19;nan
46408;BME280;32110;45.724;21.276;2022-12-29T21:26:21;101102.72;;;8.23;nan
46408;BME280;32110;45.724;21.276;2022-12-29T21:28:48;101101.13;;;8.22;nan
46408;BME280;32110;45.724;21.276;2022-12-29T21:31:34;101093.66;;;8.19;nan
46408;BME280;32110;45.724;21.276;2022-12-29T21:34:00;101107.00;;;8.24;nan
46408;BME280;32110;45.724;21.276;2022-12-29T21:36:27;101081.69;;;8.10;nan
46408;BME280;32110;45.724;21.276;2022-12-29T21:38:53;101075.06;;;8.14;nan
46408;BME280;32110;45.724;21.276;2022-12-29T21:41:19;101092.06;;;8.25;nan
46408;BME280;32110;45.724;21.276;2022-12-29T21:43:45;101083.91;;;8.13;nan
46408;BME280;32110;45.724;21.276;2022-12-29T21:46:32;101090.00;;;8.20;nan
46408;BME280;32110;45.724;21.276;2022-12-29T21:48:58;101088.59;;;8.18;nan
46408;BME280;32110;45.724;21.276;2022-12-29T21:51:23;101089.38;;;8.18;nan
46408;BME280;32110;45.724;21.276;2022-12-29T21:54:08;101099.66;;;8.13;nan
46408;BME280;32110;45.724;21.276;2022-12-29T21:56:52;101079.56;;;7.99;nan
46408;BME280;32110;45.724;21.276;2022-12-29T21:59:17;101085.25;;;8.02;nan
46408;BME280;32110;45.724;21.276;2022-12-29T22:02:02;101089.88;;;8.00;nan
46408;BME280;32110;45.724;21.276;2022-12-29T22:04:47;101095.47;;;7.97;nan
46408;BME280;32110;45.724;21.276;2022-12-29T22:07:31;101082.59;;;7.96;nan
46408;BME280;32110;45.724;21.276;2022-12-29T22:10:15;101087.03;;;7.95;nan
46408;BME280;32110;45.724;21.276;2022-12-29T22:12:59;101084.19;;;7.97;nan
46408;BME280;32110;45.724;21.276;2022-12-29T22:15:33;101076.53;;;7.95;nan
46408;BME280;32110;45.724;21.276;2022-12-29T22:17:59;101071.41;;;7.87;nan
46408;BME280;32110;45.724;21.276;2022-12-29T22:20:27;101080.53;;;7.91;nan
46408;BME280;32110;45.724;21.276;2022-12-29T22:22:53;101074.47;;;7.91;nan
46408;BME280;32110;45.724;21.276;2022-12-29T22:25:19;101069.81;;;7.86;nan
46408;BME280;32110;45.724;21.276;2022-12-29T22:27:45;101061.50;;;7.82;nan
46408;BME280;32110;45.724;21.276;2022-12-29T22:30:11;101070.84;;;7.92;nan
46408;BME280;32110;45.724;21.276;2022-12-29T22:32:37;101074.28;;;7.92;nan
46408;BME280;32110;45.724;21.276;2022-12-29T22:35:02;101060.13;;;7.86;nan
46408;BME280;32110;45.724;21.276;2022-12-29T22:37:28;101069.03;;;7.92;nan
46408;BME280;32110;45.724;21.276;2022-12-29T22:39:53;101073.91;;;7.95;nan
46408;BME280;32110;45.724;21.276;2022-12-29T22:42:19;101073.91;;;7.95;nan
46408;BME280;32110;45.724;21.276;2022-12-29T22:44:44;101065.03;;;7.96;nan
46408;BME280;32110;45.724;21.276;2022-12-29T22:47:10;101064.84;;;7.98;nan
46408;BME280;32110;45.724;21.276;2022-12-29T22:49:35;101056.53;;;7.94;nan
46408;BME280;32110;45.724;21.276;2022-12-29T22:52:01;101071.06;;;7.97;nan
46408;BME280;32110;45.724;21.276;2022-12-29T22:54:27;101065.66;;;7.98;nan
46408;BME280;32110;45.724;21.276;2022-12-29T22:56:52;101049.25;;;7.89;nan
46408;BME280;32110;45.724;21.276;2022-12-29T22:59:17;101072.72;;;7.98;nan
46408;BME280;32110;45.724;21.276;2022-12-29T23:01:43;101068.28;;;7.98;nan
46408;BME280;32110;45.724;21.276;2022-12-29T23:04:08;101062.59;;;7.95;nan
46408;BME280;32110;45.724;21.276;2022-12-29T23:06:34;101061.53;;;7.89;nan
46408;BME280;32110;45.724;21.276;2022-12-29T23:09:02;101070.31;;;8.03;nan
46408;BME280;32110;45.724;21.276;2022-12-29T23:11:30;101067.09;;;8.01;nan
46408;BME280;32110;45.724;21.276;2022-12-29T23:13:56;101061.94;;;8.14;nan
46408;BME280;32110;45.724;21.276;2022-12-29T23:16:21;101063.19;;;8.25;nan
46408;BME280;32110;45.724;21.276;2022-12-29T23:18:48;101066.56;;;8.19;nan
46408;BME280;32110;45.724;21.276;2022-12-29T23:21:15;101045.66;;;7.97;nan
46408;BME280;32110;45.724;21.276;2022-12-29T23:23:41;101066.56;;;8.12;nan
46408;BME280;32110;45.724;21.276;2022-12-29T23:26:30;101070.75;;;8.06;nan
46408;BME280;32110;45.724;21.276;2022-12-29T23:28:57;101073.38;;;8.06;nan
46408;BME280;32110;45.724;21.276;2022-12-29T23:31:23;101083.69;;;8.08;nan
46408;BME280;32110;45.724;21.276;2022-12-29T23:33:50;101086.06;;;8.03;nan
46408;BME280;32110;45.724;21.276;2022-12-29T23:36:15;101091.94;;;8.05;nan
46408;BME280;32110;45.724;21.276;2022-12-29T23:38:41;101087.88;;;8.02;nan
46408;BME280;32110;45.724;21.276;2022-12-29T23:41:07;101093.50;;;7.99;nan
46408;BME280;32110;45.724;21.276;2022-12-29T23:43:33;101085.19;;;7.96;nan
46408;BME280;32110;45.724;21.276;2022-12-29T23:46:20;101090.06;;;7.99;nan
46408;BME280;32110;45.724;21.276;2022-12-29T23:48:46;101093.06;;;7.96;nan
46408;BME280;32110;45.724;21.276;2022-12-29T23:51:12;101096.88;;;7.93;nan
46408;BME280;32110;45.724;21.276;2022-12-29T23:53:40;101095.25;;;7.92;nan
46408;BME280;32110;45.724;21.276;2022-12-29T23:56:07;101083.09;;;7.84;nan